Noginsk, Russia
Current Conditions -  °F | °C
As of 6:30 AM on Friday 19 Dec 2014 (Local Time) from UUDD Reporting Station
Overcast Overcast  
Wind Chill: 26°   Ceiling: 800
Heat Index: 32°   Visibility: 5mi
Dew Point: 30°   Wind: 7mph
Humidity: 93%   Direction: 190°S
Pressure: 29.77"   Gusts: NA
Location:  55.85°N, 38.44°E
Report Text: UUDD 190330Z 19003MPS 8000 OVC008 00/M01 Q1008 6429009514290095 NOSIG
Loading
Personal Weather Stations






























Interactive Weather Map New forecast layout! Learn more

10-Day Weather Forecast

Advertisements
Track Severe Weather on mobile